createdAt,value
2018-08-03T00:00:10.667Z,604
2018-08-03T00:01:17.879Z,604
2018-08-03T00:02:25.093Z,604
2018-08-03T00:03:32.305Z,604
2018-08-03T00:04:39.518Z,604
2018-08-03T00:05:46.732Z,603
2018-08-03T00:06:53.977Z,602
2018-08-03T00:08:01.191Z,603
2018-08-03T00:09:08.133Z,603
2018-08-03T00:10:15.346Z,603
2018-08-03T00:11:22.563Z,603
2018-08-03T00:12:29.777Z,603
2018-08-03T00:13:37.002Z,603
2018-08-03T00:14:43.944Z,602
2018-08-03T00:15:51.154Z,602
2018-08-03T00:16:58.366Z,602
2018-08-03T00:18:05.583Z,602
2018-08-03T00:19:12.796Z,601
2018-08-03T00:20:20.009Z,602
2018-08-03T00:21:27.224Z,601
2018-08-03T00:22:34.437Z,602
2018-08-03T00:23:41.648Z,601
2018-08-03T00:24:48.862Z,602
2018-08-03T00:25:56.077Z,602
2018-08-03T00:27:03.289Z,601
2018-08-03T00:28:10.506Z,601
2018-08-03T00:29:17.723Z,602
2018-08-03T00:30:24.936Z,602
2018-08-03T00:31:32.150Z,603
2018-08-03T00:32:39.364Z,603
2018-08-03T00:33:46.352Z,603
2018-08-03T00:34:53.559Z,602
2018-08-03T00:36:00.778Z,603
2018-08-03T00:37:07.712Z,602
2018-08-03T00:38:14.923Z,602
2018-08-03T00:39:22.134Z,601
2018-08-03T00:40:29.346Z,601
2018-08-03T00:41:36.562Z,601
2018-08-03T00:42:43.778Z,602
2018-08-03T00:43:50.992Z,601
2018-08-03T00:45:12.857Z,601
2018-08-03T00:46:20.069Z,600
2018-08-03T00:47:27.281Z,600
2018-08-03T00:48:34.522Z,601
2018-08-03T00:49:41.735Z,600
2018-08-03T00:50:48.944Z,600
2018-08-03T00:51:56.156Z,600
2018-08-03T00:53:03.070Z,600
2018-08-03T00:54:10.003Z,601
2018-08-03T00:55:17.219Z,600
2018-08-03T00:56:24.432Z,600
2018-08-03T00:57:31.648Z,600
2018-08-03T00:58:38.861Z,599
2018-08-03T00:59:46.078Z,599
2018-08-03T01:00:53.289Z,600
2018-08-03T01:02:00.504Z,599
2018-08-03T01:03:07.722Z,599
2018-08-03T01:04:14.941Z,599
2018-08-03T01:05:22.156Z,599
2018-08-03T01:06:29.367Z,599
2018-08-03T01:07:36.586Z,599
2018-08-03T01:08:43.792Z,599
2018-08-03T01:09:51.006Z,599
2018-08-03T01:10:58.218Z,599
2018-08-03T01:12:05.431Z,599
2018-08-03T01:13:12.642Z,599
2018-08-03T01:14:19.852Z,599
2018-08-03T01:15:27.069Z,599
2018-08-03T01:16:34.292Z,599
2018-08-03T01:17:41.231Z,598
2018-08-03T01:18:48.443Z,598
2018-08-03T01:19:55.654Z,598
2018-08-03T01:21:02.885Z,598
2018-08-03T01:22:10.106Z,598
2018-08-03T01:23:16.771Z,599
2018-08-03T01:24:23.983Z,599
2018-08-03T01:25:31.193Z,599
2018-08-03T01:26:38.406Z,599
2018-08-03T01:27:45.622Z,599
2018-08-03T01:28:52.835Z,599
2018-08-03T01:30:00.065Z,598
2018-08-03T01:31:07.268Z,598
2018-08-03T01:32:14.489Z,598
2018-08-03T01:33:21.698Z,599
2018-08-03T01:34:28.914Z,598
2018-08-03T01:35:36.130Z,598
2018-08-03T01:36:43.340Z,598
2018-08-03T01:37:50.708Z,598
2018-08-03T01:38:58.038Z,598
2018-08-03T01:40:05.252Z,598
2018-08-03T01:41:12.473Z,598
2018-08-03T01:42:19.686Z,597
2018-08-03T01:43:26.900Z,598
2018-08-03T01:44:34.112Z,598
2018-08-03T01:45:41.326Z,598
2018-08-03T01:46:48.285Z,598
2018-08-03T01:47:55.502Z,599
2018-08-03T01:49:02.711Z,599
2018-08-03T01:50:09.925Z,599
2018-08-03T01:51:17.137Z,599
2018-08-03T01:52:24.353Z,600
2018-08-03T01:53:31.562Z,599
2018-08-03T01:54:38.774Z,599
2018-08-03T01:55:45.986Z,600
2018-08-03T01:56:53.195Z,600
2018-08-03T01:58:00.135Z,600
2018-08-03T01:59:07.506Z,600
2018-08-03T02:00:14.859Z,601
2018-08-03T02:01:21.797Z,600
2018-08-03T02:02:29.015Z,599
2018-08-03T02:03:36.226Z,600
2018-08-03T02:04:43.439Z,599
2018-08-03T02:05:50.650Z,598
2018-08-03T02:06:57.863Z,599
2018-08-03T02:08:04.804Z,598
2018-08-03T02:09:12.018Z,598
2018-08-03T02:10:19.230Z,598
2018-08-03T02:11:25.867Z,598
2018-08-03T02:12:32.812Z,598
2018-08-03T02:13:40.021Z,597
2018-08-03T02:14:47.233Z,597
2018-08-03T02:15:54.176Z,598
2018-08-03T02:17:01.391Z,597
2018-08-03T02:18:08.607Z,598
2018-08-03T02:19:15.823Z,597
2018-08-03T02:20:23.035Z,598
2018-08-03T02:21:30.247Z,598
2018-08-03T02:22:37.461Z,598
2018-08-03T02:23:44.678Z,597
2018-08-03T02:24:51.896Z,597
2018-08-03T02:26:13.762Z,597
2018-08-03T02:27:20.972Z,597
2018-08-03T02:28:27.912Z,597
2018-08-03T02:29:35.129Z,597
2018-08-03T02:30:42.348Z,596
2018-08-03T02:31:49.559Z,597
2018-08-03T02:32:56.794Z,597
2018-08-03T02:34:03.732Z,597
2018-08-03T02:35:10.941Z,597
2018-08-03T02:36:18.158Z,596
2018-08-03T02:37:25.375Z,596
2018-08-03T02:38:32.585Z,597
2018-08-03T02:39:39.527Z,597
2018-08-03T02:40:46.755Z,596
2018-08-03T02:41:53.952Z,596
2018-08-03T02:43:01.165Z,597
2018-08-03T02:44:08.395Z,596
2018-08-03T02:45:15.598Z,597
2018-08-03T02:46:22.812Z,596
2018-08-03T02:47:30.024Z,596
2018-08-03T02:48:37.237Z,594
2018-08-03T22:00:06.710Z,635
2018-08-03T22:01:13.921Z,629
2018-08-03T22:02:21.135Z,627
2018-08-03T22:03:28.345Z,626
2018-08-03T22:04:35.564Z,625
2018-08-03T22:05:42.774Z,624
2018-08-03T22:06:49.990Z,623
2018-08-03T22:07:57.202Z,623
2018-08-03T22:09:04.416Z,622
2018-08-03T22:10:11.630Z,621
2018-08-03T22:11:18.845Z,621
2018-08-03T22:12:26.061Z,621
2018-08-03T22:13:33.272Z,621
2018-08-03T22:14:40.482Z,620
2018-08-03T22:15:47.689Z,621
2018-08-03T22:16:54.900Z,620
2018-08-03T22:18:02.119Z,621
2018-08-03T22:19:09.325Z,619
2018-08-03T22:20:16.537Z,619
2018-08-03T22:21:23.749Z,619
2018-08-03T22:22:30.959Z,618
2018-08-03T22:23:38.173Z,619
2018-08-03T22:24:45.391Z,619
2018-08-03T22:25:52.594Z,618
2018-08-03T22:26:59.806Z,618
2018-08-03T22:28:07.016Z,617
2018-08-03T22:29:14.229Z,617
2018-08-03T22:30:21.440Z,617
2018-08-03T22:31:28.684Z,617
2018-08-03T22:32:36.217Z,617
2018-08-03T22:33:43.626Z,617
2018-08-03T22:34:50.836Z,616
2018-08-03T22:35:57.773Z,615
2018-08-03T22:37:04.711Z,615
2018-08-03T22:38:11.922Z,615
2018-08-03T22:39:19.136Z,614
2018-08-03T22:40:26.359Z,614
2018-08-03T22:41:33.572Z,615
2018-08-03T22:42:40.835Z,615
2018-08-03T22:43:48.086Z,614
2018-08-03T22:44:55.305Z,614
2018-08-03T22:46:02.516Z,613
2018-08-03T22:47:09.727Z,613
2018-08-03T22:48:16.957Z,613
2018-08-03T22:49:23.902Z,614
2018-08-03T22:50:31.117Z,614
2018-08-03T22:51:38.337Z,613
2018-08-03T22:52:45.549Z,613
2018-08-03T22:53:52.759Z,612
2018-08-03T22:54:59.973Z,613
2018-08-03T22:56:07.184Z,613
2018-08-03T22:57:14.396Z,612
2018-08-03T22:58:21.609Z,612
2018-08-03T22:59:28.820Z,612
2018-08-03T23:00:36.033Z,611
2018-08-03T23:01:42.971Z,610
2018-08-03T23:03:04.840Z,610
2018-08-03T23:04:12.056Z,610
2018-08-03T23:05:19.276Z,610
2018-08-03T23:06:26.491Z,610
2018-08-03T23:07:33.717Z,609
2018-08-03T23:08:40.927Z,609
2018-08-03T23:09:47.867Z,609
2018-08-03T23:10:55.093Z,609
2018-08-03T23:12:02.294Z,609
2018-08-03T23:13:09.740Z,609
2018-08-03T23:14:16.988Z,608
2018-08-03T23:15:24.203Z,609
2018-08-03T23:16:31.414Z,609
2018-08-03T23:17:38.631Z,610
2018-08-03T23:18:45.843Z,610
2018-08-03T23:19:52.782Z,610
2018-08-03T23:20:59.998Z,611
2018-08-03T23:22:07.215Z,611
2018-08-03T23:23:14.429Z,611
2018-08-03T23:24:21.643Z,612
2018-08-03T23:25:28.858Z,612
2018-08-03T23:26:36.076Z,612
2018-08-03T23:27:43.309Z,612
2018-08-03T23:28:50.524Z,611
2018-08-03T23:29:57.737Z,611
2018-08-03T23:31:04.953Z,611
2018-08-03T23:32:12.165Z,612
2018-08-03T23:33:19.391Z,612
2018-08-03T23:34:26.602Z,613
2018-08-03T23:35:33.822Z,612
2018-08-03T23:36:40.765Z,612
2018-08-03T23:37:47.985Z,612
2018-08-03T23:38:55.204Z,612
2018-08-03T23:40:02.424Z,613
2018-08-03T23:41:09.639Z,613
2018-08-03T23:42:16.856Z,613
2018-08-03T23:43:24.072Z,613
2018-08-03T23:44:31.291Z,614
2018-08-03T23:45:38.504Z,614
2018-08-03T23:46:45.723Z,615
2018-08-03T23:47:52.939Z,615
2018-08-03T23:49:00.155Z,616
2018-08-03T23:50:07.371Z,616
2018-08-03T23:51:14.585Z,615
2018-08-03T23:52:21.802Z,616
2018-08-03T23:53:29.014Z,616
2018-08-03T23:54:36.237Z,617
2018-08-03T23:55:43.452Z,616
2018-08-03T23:56:50.663Z,616
2018-08-03T23:57:57.880Z,616
2018-08-03T23:59:04.825Z,617
